createdAt,value
2017-05-11T00:00:52.563Z,1001.83
2017-05-11T00:02:05.100Z,1001.82
2017-05-11T00:03:17.629Z,1001.82
2017-05-11T00:04:30.149Z,1001.83
2017-05-11T00:05:42.691Z,1001.82
2017-05-11T00:06:54.940Z,1001.84
2017-05-11T00:08:07.461Z,1001.79
2017-05-11T00:09:19.689Z,1001.8
2017-05-11T00:10:32.209Z,1001.83
2017-05-11T00:11:44.700Z,1001.79
2017-05-11T00:12:57.242Z,1001.77
2017-05-11T00:14:09.791Z,1001.8
2017-05-11T00:15:22.329Z,1001.77
2017-05-11T00:16:34.882Z,1001.74
2017-05-11T00:17:47.426Z,1001.77
2017-05-11T00:18:59.975Z,1001.73
2017-05-11T00:20:12.817Z,1001.79
2017-05-11T00:21:25.367Z,1001.79
2017-05-11T00:22:37.913Z,1001.75
2017-05-11T00:23:50.125Z,1001.74
2017-05-11T00:25:02.376Z,1001.7
2017-05-11T00:26:14.897Z,1001.73
2017-05-11T00:27:27.121Z,1001.71
2017-05-11T00:28:39.663Z,1001.69
2017-05-11T00:29:51.918Z,1001.68
2017-05-11T00:31:04.436Z,1001.66
2017-05-11T00:32:17.006Z,1001.66
2017-05-11T00:33:29.250Z,1001.66
2017-05-11T00:34:41.798Z,1001.61
2017-05-11T00:35:54.318Z,1001.63
2017-05-11T00:37:06.857Z,1001.66
2017-05-11T00:38:19.359Z,1001.67
2017-05-11T00:39:31.873Z,1001.71
2017-05-11T00:40:44.376Z,1001.73
2017-05-11T00:41:56.900Z,1001.69
2017-05-11T00:43:09.470Z,1001.69
2017-05-11T00:44:22.015Z,1001.65
2017-05-11T00:45:34.552Z,1001.68
2017-05-11T00:46:47.080Z,1001.68
2017-05-11T00:47:59.267Z,1001.69
2017-05-11T00:49:11.172Z,1001.69
2017-05-11T00:50:23.711Z,1001.68
2017-05-11T00:51:36.246Z,1001.74
2017-05-11T00:52:48.759Z,1001.71
2017-05-11T00:54:01.303Z,1001.66
2017-05-11T00:55:13.827Z,1001.69
2017-05-11T00:56:26.349Z,1001.65
2017-05-11T00:57:38.884Z,1001.7
2017-05-11T00:58:51.393Z,1001.68
2017-05-11T01:00:03.615Z,1001.67
2017-05-11T01:01:16.146Z,1001.6
2017-05-11T01:02:28.718Z,1001.69
2017-05-11T01:03:40.949Z,1001.65
2017-05-11T01:04:53.494Z,1001.68
2017-05-11T01:06:06.016Z,1001.66
2017-05-11T01:07:18.214Z,1001.7
2017-05-11T01:08:30.743Z,1001.7
2017-05-11T01:09:43.281Z,1001.62
2017-05-11T01:10:55.516Z,1001.69
2017-05-11T01:12:08.045Z,1001.62
2017-05-11T01:13:20.268Z,1001.69
2017-05-11T01:14:33.111Z,1001.68
2017-05-11T01:15:45.651Z,1001.64
2017-05-11T01:16:58.174Z,1001.63
2017-05-11T01:18:10.696Z,1001.6
2017-05-11T01:19:23.219Z,1001.61
2017-05-11T01:20:35.716Z,1001.55
2017-05-11T01:21:48.251Z,1001.55
2017-05-11T01:23:00.757Z,1001.55
2017-05-11T01:24:13.304Z,1001.54
2017-05-11T01:25:25.549Z,1001.56
2017-05-11T01:26:37.792Z,1001.54
2017-05-11T01:27:50.309Z,1001.5
2017-05-11T01:29:02.834Z,1001.51
2017-05-11T01:30:15.373Z,1001.5
2017-05-11T01:31:27.906Z,1001.51
2017-05-11T01:32:40.142Z,1001.47
2017-05-11T01:33:52.396Z,1001.45
2017-05-11T01:35:04.622Z,1001.46
2017-05-11T01:36:17.165Z,1001.48
2017-05-11T01:37:29.726Z,1001.49
2017-05-11T01:38:42.251Z,1001.47
2017-05-11T01:39:54.781Z,1001.45
2017-05-11T01:41:07.010Z,1001.43
2017-05-11T01:42:19.531Z,1001.42
2017-05-11T01:43:32.052Z,1001.4
2017-05-11T01:44:44.551Z,1001.44
2017-05-11T01:45:56.470Z,1001.41
2017-05-11T01:47:09.216Z,1001.42
2017-05-11T01:48:21.770Z,1001.43
2017-05-11T01:49:34.285Z,1001.46
2017-05-11T01:50:46.835Z,1001.45
2017-05-11T01:51:59.050Z,1001.42
2017-05-11T01:53:11.585Z,1001.43
2017-05-11T01:54:24.127Z,1001.43
2017-05-11T01:55:36.702Z,1001.45
2017-05-11T01:56:49.219Z,1001.42
2017-05-11T01:58:01.757Z,1001.38
2017-05-11T01:59:13.977Z,1001.39
2017-05-11T02:00:26.499Z,1001.37
2017-05-11T02:01:39.001Z,1001.37
2017-05-11T02:02:51.540Z,1001.35
2017-05-11T02:04:04.090Z,1001.33
2017-05-11T02:05:16.610Z,1001.36
2017-05-11T02:06:29.135Z,1001.37
2017-05-11T02:07:41.679Z,1001.35
2017-05-11T02:08:54.202Z,1001.37
2017-05-11T02:10:06.740Z,1001.37
2017-05-11T02:11:18.966Z,1001.4
2017-05-11T02:12:31.491Z,1001.43
2017-05-11T02:13:44.034Z,1001.39
2017-05-11T02:14:56.246Z,1001.4
2017-05-11T02:16:08.779Z,1001.35
2017-05-11T02:17:21.320Z,1001.34
2017-05-11T02:18:33.859Z,1001.29
2017-05-11T02:19:46.366Z,1001.28
2017-05-11T02:20:58.884Z,1001.29
2017-05-11T02:22:10.825Z,1001.25
2017-05-11T02:23:23.354Z,1001.24
2017-05-11T02:24:35.939Z,1001.23
2017-05-11T02:25:48.449Z,1001.21
2017-05-11T02:27:00.063Z,1001.19
2017-05-11T02:28:12.605Z,1001.23
2017-05-11T02:29:25.154Z,1001.18
2017-05-11T02:30:37.946Z,1001.17
2017-05-11T02:31:50.463Z,1001.19
2017-05-11T02:33:03.010Z,1001.14
2017-05-11T02:34:15.547Z,1001.16
2017-05-11T02:35:28.062Z,1001.13
2017-05-11T02:36:40.279Z,1001.12
2017-05-11T02:37:52.481Z,1001.09
2017-05-11T02:39:05.001Z,1001.08
2017-05-11T02:40:17.522Z,1001.07
2017-05-11T02:41:30.056Z,1001.08
2017-05-11T02:42:42.276Z,1001.05
2017-05-11T02:43:54.501Z,1001.05
2017-05-11T02:45:06.726Z,1001.05
2017-05-11T02:46:19.231Z,1001.08
2017-05-11T02:47:31.768Z,1001.02
2017-05-11T02:48:44.319Z,1001.05
2017-05-11T02:49:56.839Z,1001.03
2017-05-11T02:51:09.364Z,1001.03
2017-05-11T02:52:21.870Z,1001
2017-05-11T02:53:34.390Z,1000.99
2017-05-11T02:54:46.897Z,1001.01
2017-05-11T02:55:59.444Z,1000.99
2017-05-11T02:57:11.978Z,1001
2017-05-11T02:58:24.499Z,1001
2017-05-11T02:59:36.728Z,1000.99
2017-05-11T03:00:49.245Z,1001.01
2017-05-11T03:02:01.473Z,1001
2017-05-11T03:03:13.983Z,1001.04
2017-05-11T03:04:26.486Z,1001.06
2017-05-11T03:05:39.024Z,1001
2017-05-11T03:06:51.530Z,1001.04
2017-05-11T03:08:04.052Z,1001.04
2017-05-11T03:09:16.547Z,1001.06
2017-05-11T03:10:29.086Z,1001.05
2017-05-11T03:11:41.640Z,1001.09
2017-05-11T03:12:54.182Z,1001.07
2017-05-11T03:14:06.420Z,1001.08
2017-05-11T03:15:18.950Z,1001.05
2017-05-11T03:16:31.474Z,1001.06
2017-05-11T03:17:43.687Z,1001.07
2017-05-11T03:18:56.216Z,1001.08
2017-05-11T03:20:08.761Z,1001.08
2017-05-11T03:21:21.296Z,1001.08
2017-05-11T03:22:33.553Z,1001.09
2017-05-11T03:23:45.800Z,1001.1
2017-05-11T03:24:58.325Z,1001.08
2017-05-11T03:26:10.544Z,1001.03
2017-05-11T03:27:23.054Z,1001.03
2017-05-11T03:28:35.604Z,1001.03
2017-05-11T03:29:48.129Z,1001.05
2017-05-11T03:31:00.392Z,1001.09
2017-05-11T03:32:12.899Z,1001.06
2017-05-11T03:33:25.134Z,1001.07
2017-05-11T03:34:37.684Z,1001.11
2017-05-11T03:35:50.222Z,1001.1
2017-05-11T03:37:02.433Z,1001.08
2017-05-11T03:38:14.949Z,1001.05
2017-05-11T03:39:27.488Z,1001.04
2017-05-11T03:40:39.995Z,1001.01
2017-05-11T03:41:52.530Z,1001.05
2017-05-11T03:43:05.085Z,1001.02
2017-05-11T03:44:17.622Z,1001.04
2017-05-11T03:45:30.168Z,1001.05
2017-05-11T03:46:42.714Z,1001.11
2017-05-11T03:47:55.219Z,1001.08
2017-05-11T03:49:07.784Z,1001.05
2017-05-11T03:50:20.033Z,1001.06
2017-05-11T03:51:32.556Z,1001.11
2017-05-11T03:52:45.397Z,1001.12
2017-05-11T03:53:57.339Z,1001.11
2017-05-11T03:55:09.857Z,1001.1
2017-05-11T03:56:22.364Z,1001.15
2017-05-11T03:57:34.881Z,1001.13
2017-05-11T03:58:47.434Z,1001.12
2017-05-11T03:59:59.946Z,1001.18
2017-05-11T04:01:12.469Z,1001.17
2017-05-11T04:02:24.986Z,1001.15
2017-05-11T04:03:37.516Z,1001.19
2017-05-11T04:04:50.080Z,1001.18
2017-05-11T04:06:02.631Z,1001.18
2017-05-11T04:07:14.881Z,1001.16
2017-05-11T04:08:27.724Z,1001.15
2017-05-11T04:09:40.293Z,1001.17
2017-05-11T04:10:52.809Z,1001.18
2017-05-11T04:12:05.331Z,1001.17
2017-05-11T04:13:17.581Z,1001.14
2017-05-11T04:14:30.120Z,1001.19
2017-05-11T04:15:42.345Z,1001.21
2017-05-11T04:16:54.894Z,1001.22
2017-05-11T04:18:07.110Z,1001.2
2017-05-11T04:19:19.637Z,1001.21
2017-05-11T04:20:32.158Z,1001.2
2017-05-11T04:21:44.679Z,1001.22
2017-05-11T04:22:57.188Z,1001.23
2017-05-11T04:24:09.398Z,1001.2
2017-05-11T04:25:21.904Z,1001.29
2017-05-11T04:26:34.415Z,1001.31
2017-05-11T04:27:46.654Z,1001.31
2017-05-11T04:28:58.882Z,1001.29
2017-05-11T04:30:11.121Z,1001.34
2017-05-11T04:31:23.675Z,1001.34
2017-05-11T04:32:36.216Z,1001.33
2017-05-11T04:33:48.462Z,1001.33
2017-05-11T04:35:00.972Z,1001.31
2017-05-11T04:36:13.181Z,1001.34
2017-05-11T04:37:25.679Z,1001.3
2017-05-11T04:38:38.210Z,1001.34
2017-05-11T04:39:50.738Z,1001.36
2017-05-11T04:41:02.987Z,1001.35
2017-05-11T04:42:15.497Z,1001.36
2017-05-11T04:43:27.701Z,1001.37
2017-05-11T04:44:40.203Z,1001.36
2017-05-11T04:45:52.742Z,1001.37
2017-05-11T04:47:04.945Z,1001.36
2017-05-11T04:48:17.213Z,1001.36
2017-05-11T04:49:29.731Z,1001.36
2017-05-11T04:50:42.277Z,1001.42
2017-05-11T04:51:55.073Z,1001.39
2017-05-11T04:53:07.639Z,1001.38
2017-05-11T04:54:19.864Z,1001.39
2017-05-11T04:55:32.385Z,1001.4
2017-05-11T04:56:44.592Z,1001.38
2017-05-11T04:57:57.096Z,1001.43
2017-05-11T04:59:09.648Z,1001.37
2017-05-11T05:00:22.190Z,1001.39
2017-05-11T05:01:34.739Z,1001.42
2017-05-11T05:02:47.263Z,1001.41
2017-05-11T05:03:59.810Z,1001.42
2017-05-11T05:05:12.330Z,1001.45
2017-05-11T05:06:24.568Z,1001.4
2017-05-11T05:07:37.119Z,1001.44
2017-05-11T05:08:49.643Z,1001.43
2017-05-11T05:10:02.165Z,1001.43
2017-05-11T05:11:14.431Z,1001.43
2017-05-11T05:12:26.659Z,1001.44
2017-05-11T05:13:39.153Z,1001.45
2017-05-11T05:14:51.390Z,1001.47
2017-05-11T05:16:03.594Z,1001.5
2017-05-11T05:17:15.832Z,1001.48
2017-05-11T05:18:28.061Z,1001.44
2017-05-11T05:19:40.604Z,1001.41
2017-05-11T05:20:53.153Z,1001.43
2017-05-11T05:22:05.687Z,1001.42
2017-05-11T05:23:17.892Z,1001.46
2017-05-11T05:24:30.666Z,1001.5
2017-05-11T05:25:43.237Z,1001.44
2017-05-11T05:26:55.785Z,1001.43
2017-05-11T05:28:08.323Z,1001.44
2017-05-11T05:29:20.566Z,1001.45
2017-05-11T05:30:33.095Z,1001.49
2017-05-11T05:31:45.320Z,1001.54
2017-05-11T05:32:57.859Z,1001.55
2017-05-11T05:34:10.097Z,1001.57
2017-05-11T05:35:22.306Z,1001.59
2017-05-11T05:36:34.824Z,1001.62
2017-05-11T05:37:47.345Z,1001.64
2017-05-11T05:38:59.893Z,1001.63
2017-05-11T05:40:12.137Z,1001.67
2017-05-11T05:41:24.701Z,1001.69
2017-05-11T05:42:37.225Z,1001.69
2017-05-11T05:43:49.753Z,1001.67
2017-05-11T05:45:02.017Z,1001.67
2017-05-11T05:46:14.569Z,1001.67
2017-05-11T05:47:27.111Z,1001.66
2017-05-11T05:48:39.650Z,1001.63
2017-05-11T05:49:52.198Z,1001.62
2017-05-11T05:51:04.722Z,1001.6
2017-05-11T05:52:17.297Z,1001.65
2017-05-11T05:53:29.859Z,1001.62
2017-05-11T05:54:42.101Z,1001.61
2017-05-11T05:55:54.606Z,1001.64
2017-05-11T05:57:07.148Z,1001.6
2017-05-11T05:58:19.350Z,1001.58
2017-05-11T05:59:31.868Z,1001.57
2017-05-11T06:00:44.114Z,1001.58
2017-05-11T06:01:56.662Z,1001.63
2017-05-11T06:03:09.184Z,1001.61
2017-05-11T06:04:21.427Z,1001.6
2017-05-11T06:05:33.997Z,1001.56
2017-05-11T06:06:46.547Z,1001.59
2017-05-11T06:07:58.822Z,1001.65
2017-05-11T06:09:11.362Z,1001.57
2017-05-11T06:10:23.903Z,1001.55
2017-05-11T06:11:36.154Z,1001.56
2017-05-11T06:12:48.402Z,1001.55
2017-05-11T06:14:00.949Z,1001.58
2017-05-11T06:15:12.891Z,1001.59
2017-05-11T06:16:25.439Z,1001.6
2017-05-11T06:17:37.988Z,1001.57
2017-05-11T06:18:50.845Z,1001.61
2017-05-11T06:20:03.377Z,1001.57
2017-05-11T06:21:15.297Z,1001.6
2017-05-11T06:22:27.862Z,1001.58
2017-05-11T06:23:40.393Z,1001.66
2017-05-11T06:24:52.636Z,1001.71
2017-05-11T06:26:04.881Z,1001.74
2017-05-11T06:27:16.820Z,1001.7
2017-05-11T06:28:29.379Z,1001.66
2017-05-11T06:29:41.937Z,1001.71
2017-05-11T06:30:54.487Z,1001.74
2017-05-11T06:32:07.075Z,1001.77
2017-05-11T06:33:19.608Z,1001.79
2017-05-11T06:34:32.154Z,1001.78
2017-05-11T06:35:44.717Z,1001.79
2017-05-11T06:36:57.234Z,1001.79
2017-05-11T06:38:09.780Z,1001.79
2017-05-11T06:39:22.025Z,1001.81
2017-05-11T06:40:34.555Z,1001.81
2017-05-11T06:41:47.049Z,1001.83
2017-05-11T06:42:58.992Z,1001.93
2017-05-11T06:44:11.234Z,1001.92
2017-05-11T06:45:23.767Z,1001.92
2017-05-11T06:46:36.334Z,1001.99
2017-05-11T06:47:48.863Z,1001.97
2017-05-11T06:49:01.405Z,1002.03
2017-05-11T06:50:13.976Z,1001.99
2017-05-11T06:51:26.536Z,1002.02
2017-05-11T06:52:39.088Z,1001.97
2017-05-11T06:53:51.335Z,1001.9
2017-05-11T06:55:03.907Z,1001.82
2017-05-11T06:56:16.457Z,1001.81
2017-05-11T06:57:28.401Z,1001.8
2017-05-11T06:58:40.974Z,1001.75
2017-05-11T06:59:53.538Z,1001.76
2017-05-11T07:01:06.109Z,1001.75
2017-05-11T07:02:18.311Z,1001.79
2017-05-11T07:03:30.854Z,1001.76
2017-05-11T07:04:43.426Z,1001.76
2017-05-11T07:05:55.950Z,1001.71
2017-05-11T07:07:07.918Z,1001.72
2017-05-11T07:08:19.561Z,1001.71
2017-05-11T07:09:32.081Z,1001.69
2017-05-11T07:10:44.331Z,1001.65
2017-05-11T07:11:56.879Z,1001.7
2017-05-11T07:13:09.399Z,1001.71
2017-05-11T07:14:21.943Z,1001.71
2017-05-11T07:15:34.493Z,1001.66
2017-05-11T07:16:46.741Z,1001.69
2017-05-11T07:17:59.298Z,1001.7
2017-05-11T07:19:11.857Z,1001.71
2017-05-11T07:20:24.112Z,1001.67
2017-05-11T07:21:36.673Z,1001.65
2017-05-11T07:22:48.936Z,1001.67
2017-05-11T07:24:01.186Z,1001.67
2017-05-11T07:25:13.427Z,1001.66
2017-05-11T07:26:25.374Z,1001.67
2017-05-11T07:27:37.926Z,1001.68
2017-05-11T07:28:50.491Z,1001.68
2017-05-11T07:30:02.733Z,1001.65
2017-05-11T07:31:14.686Z,1001.68
2017-05-11T07:32:26.907Z,1001.74
2017-05-11T07:33:39.449Z,1001.68
2017-05-11T07:34:51.977Z,1001.68
2017-05-11T07:36:04.497Z,1001.61
2017-05-11T07:37:16.746Z,1001.6
2017-05-11T07:38:29.284Z,1001.62
2017-05-11T07:39:41.825Z,1001.61
2017-05-11T07:40:54.394Z,1001.61
2017-05-11T07:42:06.924Z,1001.63
2017-05-11T07:43:19.171Z,1001.58
2017-05-11T07:44:31.711Z,1001.58
2017-05-11T07:45:44.279Z,1001.55
2017-05-11T07:46:56.198Z,1001.55
2017-05-11T07:48:08.705Z,1001.57
2017-05-11T07:49:20.951Z,1001.57
2017-05-11T07:50:33.192Z,1001.57
2017-05-11T07:51:45.738Z,1001.57
2017-05-11T07:52:58.284Z,1001.61
2017-05-11T07:54:10.848Z,1001.67
2017-05-11T07:55:23.094Z,1001.6
2017-05-11T07:56:35.643Z,1001.66
2017-05-11T07:57:48.177Z,1001.68
2017-05-11T07:59:00.442Z,1001.68
2017-05-11T08:00:12.985Z,1001.7
2017-05-11T08:01:25.256Z,1001.71
2017-05-11T08:02:37.826Z,1001.65
2017-05-11T08:03:50.394Z,1001.61
2017-05-11T08:05:02.623Z,1001.6
2017-05-11T08:06:14.593Z,1001.6
2017-05-11T08:07:26.878Z,1001.53
2017-05-11T08:08:39.424Z,1001.54
2017-05-11T08:09:51.706Z,1001.49
2017-05-11T08:11:03.942Z,1001.49
2017-05-11T08:12:16.241Z,1001.5
2017-05-11T08:13:28.787Z,1001.48
2017-05-11T08:14:41.362Z,1001.43
2017-05-11T08:15:53.676Z,1001.48
2017-05-11T08:17:06.232Z,1001.39
2017-05-11T08:18:18.791Z,1001.43
2017-05-11T08:19:30.745Z,1001.41
2017-05-11T08:20:43.294Z,1001.41
2017-05-11T08:21:55.261Z,1001.43
2017-05-11T08:23:07.214Z,1001.41
2017-05-11T08:24:19.800Z,1001.43
2017-05-11T08:25:32.075Z,1001.4
2017-05-11T08:26:44.313Z,1001.41
2017-05-11T08:27:56.863Z,1001.4
2017-05-11T08:29:09.414Z,1001.43
2017-05-11T08:30:21.685Z,1001.36
2017-05-11T08:31:34.230Z,1001.48
2017-05-11T08:32:46.500Z,1001.46
2017-05-11T08:33:59.043Z,1001.44
2017-05-11T08:35:11.573Z,1001.47
2017-05-11T08:36:23.481Z,1001.46
2017-05-11T08:37:35.752Z,1001.43
2017-05-11T08:38:48.297Z,1001.46
2017-05-11T08:40:00.825Z,1001.44
2017-05-11T08:41:13.377Z,1001.45
2017-05-11T08:42:25.639Z,1001.41
2017-05-11T08:43:38.209Z,1001.35
2017-05-11T08:44:50.777Z,1001.41
2017-05-11T08:46:03.061Z,1001.42
2017-05-11T08:47:15.326Z,1001.44
2017-05-11T08:48:27.868Z,1001.37
2017-05-11T08:49:40.421Z,1001.36
2017-05-11T08:50:52.672Z,1001.34
2017-05-11T08:52:04.980Z,1001.39
2017-05-11T08:53:16.923Z,1001.36
2017-05-11T08:54:29.475Z,1001.29
2017-05-11T08:55:41.751Z,1001.33
2017-05-11T08:56:54.018Z,1001.3
2017-05-11T08:58:06.255Z,1001.34
2017-05-11T08:59:18.185Z,1001.36
2017-05-11T09:00:30.751Z,1001.34
2017-05-11T09:01:43.283Z,1001.33
2017-05-11T09:02:55.852Z,1001.32
2017-05-11T09:04:08.417Z,1001.31
2017-05-11T09:05:20.357Z,1001.25
2017-05-11T09:06:32.602Z,1001.23
2017-05-11T09:07:45.173Z,1001.23
2017-05-11T09:08:57.723Z,1001.21
2017-05-11T09:10:10.279Z,1001.24
2017-05-11T09:11:22.827Z,1001.24
2017-05-11T09:12:35.344Z,1001.21
2017-05-11T09:13:47.888Z,1001.2
2017-05-11T09:15:00.129Z,1001.18
2017-05-11T09:16:12.653Z,1001.17
2017-05-11T09:17:24.583Z,1001.2
2017-05-11T09:18:37.147Z,1001.22
2017-05-11T09:19:49.686Z,1001.24
2017-05-11T09:21:02.257Z,1001.17
2017-05-11T09:22:14.512Z,1001.16
2017-05-11T09:23:26.474Z,1001.2
2017-05-11T09:24:39.042Z,1001.14
2017-05-11T09:25:51.588Z,1001.11
2017-05-11T09:27:04.137Z,1001.13
2017-05-11T09:28:16.090Z,1001.14
2017-05-11T09:29:28.333Z,1001.1
2017-05-11T09:30:40.903Z,1001.12
2017-05-11T09:31:53.146Z,1001.15
2017-05-11T09:33:05.698Z,1001.08
2017-05-11T09:34:17.351Z,1001.09
2017-05-11T09:35:29.913Z,1001.09
2017-05-11T09:36:41.854Z,1001.12
2017-05-11T09:37:54.400Z,1001.09
2017-05-11T09:39:06.997Z,1001.1
2017-05-11T09:40:19.513Z,1001.03
2017-05-11T09:41:32.071Z,1001
2017-05-11T09:42:44.609Z,1000.92
2017-05-11T09:43:57.180Z,1000.99
2017-05-11T09:45:09.747Z,1000.98
2017-05-11T09:46:22.301Z,1000.95
2017-05-11T09:47:34.568Z,1000.92
2017-05-11T09:48:46.835Z,1000.93
2017-05-11T09:49:59.397Z,1000.96
2017-05-11T09:51:11.651Z,1000.94
2017-05-11T09:52:24.180Z,1000.97
2017-05-11T09:53:36.768Z,1000.98
2017-05-11T09:54:49.298Z,1000.96
2017-05-11T09:56:01.869Z,1000.99
2017-05-11T09:57:14.447Z,1000.91
2017-05-11T09:58:26.712Z,1000.89
2017-05-11T09:59:39.261Z,1000.93
2017-05-11T10:00:51.522Z,1000.92
2017-05-11T10:02:03.447Z,1000.96
2017-05-11T10:03:15.669Z,1000.98
2017-05-11T10:04:28.281Z,1000.96
2017-05-11T10:05:40.539Z,1000.95
2017-05-11T10:06:53.098Z,1000.94
2017-05-11T10:08:05.078Z,1000.97
2017-05-11T10:09:17.654Z,1000.97
2017-05-11T10:10:29.910Z,1000.95
2017-05-11T10:11:42.144Z,1000.97
2017-05-11T10:12:54.703Z,1000.95
2017-05-11T10:14:07.224Z,1000.93
2017-05-11T10:15:18.552Z,1000.84
2017-05-11T10:16:31.127Z,1000.91
2017-05-11T10:17:43.985Z,1000.85
2017-05-11T10:18:56.539Z,1000.85
2017-05-11T10:20:09.093Z,1000.88
2017-05-11T10:21:21.660Z,1000.84
2017-05-11T10:22:33.949Z,1000.87
2017-05-11T10:23:46.499Z,1000.83
2017-05-11T10:24:59.040Z,1000.83
2017-05-11T10:26:11.016Z,1000.79
2017-05-11T10:27:23.287Z,1000.77
2017-05-11T10:28:35.810Z,1000.76
2017-05-11T10:29:48.056Z,1000.75
2017-05-11T10:31:00.627Z,1000.77
2017-05-11T10:32:13.172Z,1000.75
2017-05-11T10:33:24.817Z,1000.71
2017-05-11T10:34:37.363Z,1000.76
2017-05-11T10:35:49.937Z,1000.7
2017-05-11T10:37:02.504Z,1000.72
2017-05-11T10:38:15.100Z,1000.71
2017-05-11T10:39:27.647Z,1000.65
2017-05-11T10:40:40.197Z,1000.66
2017-05-11T10:41:52.441Z,1000.65
2017-05-11T10:43:05.014Z,1000.63
2017-05-11T10:44:17.280Z,1000.58
2017-05-11T10:45:29.534Z,1000.59
2017-05-11T10:46:42.100Z,1000.53
2017-05-11T10:47:54.671Z,1000.52
2017-05-11T10:49:06.937Z,1000.5
2017-05-11T10:50:19.509Z,1000.44
2017-05-11T10:51:31.758Z,1000.41
2017-05-11T10:52:44.318Z,1000.38
2017-05-11T10:53:56.867Z,1000.41
2017-05-11T10:55:08.823Z,1000.42
2017-05-11T10:56:21.409Z,1000.44
2017-05-11T10:57:33.986Z,1000.46
2017-05-11T10:58:46.533Z,1000.43
2017-05-11T10:59:59.105Z,1000.42
2017-05-11T11:01:11.411Z,1000.44
2017-05-11T11:02:23.673Z,1000.44
2017-05-11T11:03:35.941Z,1000.35
2017-05-11T11:04:48.235Z,1000.37
2017-05-11T11:06:00.801Z,1000.35
2017-05-11T11:07:13.381Z,1000.35
2017-05-11T11:08:25.958Z,1000.36
2017-05-11T11:09:38.522Z,1000.31
2017-05-11T11:10:51.110Z,1000.27
2017-05-11T11:12:03.385Z,1000.27
2017-05-11T11:13:15.359Z,1000.27
2017-05-11T11:14:27.631Z,1000.27
2017-05-11T11:15:39.898Z,1000.27
2017-05-11T11:16:52.140Z,1000.29
2017-05-11T11:18:04.692Z,1000.3
2017-05-11T11:19:17.213Z,1000.25
2017-05-11T11:20:29.742Z,1000.3
2017-05-11T11:21:42.002Z,1000.27
2017-05-11T11:22:54.269Z,1000.26
2017-05-11T11:24:06.818Z,1000.25
2017-05-11T11:25:19.087Z,1000.2
2017-05-11T11:26:31.661Z,1000.19
2017-05-11T11:27:44.253Z,1000.24
2017-05-11T11:28:56.883Z,1000.25
2017-05-11T11:30:09.474Z,1000.19
2017-05-11T11:31:21.765Z,1000.21
2017-05-11T11:32:34.032Z,1000.2
2017-05-11T11:33:46.614Z,1000.16
2017-05-11T11:34:59.200Z,1000.16
2017-05-11T11:36:11.753Z,1000.16
2017-05-11T11:37:24.029Z,1000.12
2017-05-11T11:38:36.574Z,1000.15
2017-05-11T11:39:49.120Z,1000.1
2017-05-11T11:41:01.703Z,1000.1
2017-05-11T11:42:13.964Z,1000.09
2017-05-11T11:43:26.208Z,1000.09
2017-05-11T11:44:38.775Z,1000.12
2017-05-11T11:45:51.326Z,1000.08
2017-05-11T11:47:03.887Z,1000.04
2017-05-11T11:48:16.457Z,1000.04
2017-05-11T11:49:28.413Z,1000.08
2017-05-11T11:50:40.972Z,1000.05
2017-05-11T11:51:53.544Z,1000.04
2017-05-11T11:53:05.247Z,999.98
2017-05-11T11:54:17.496Z,1000
2017-05-11T11:55:30.082Z,1000
2017-05-11T11:56:42.040Z,999.95
2017-05-11T11:57:54.309Z,999.93
2017-05-11T11:59:06.951Z,999.92
2017-05-11T12:00:18.920Z,999.91
2017-05-11T12:01:31.492Z,999.95
2017-05-11T12:02:44.041Z,999.97
2017-05-11T12:03:55.986Z,999.93
2017-05-11T12:05:08.259Z,999.91
2017-05-11T12:06:20.245Z,999.9
2017-05-11T12:07:32.795Z,999.95
2017-05-11T12:08:45.394Z,999.98
2017-05-11T12:09:57.989Z,999.95
2017-05-11T12:11:10.264Z,999.92
2017-05-11T12:12:22.802Z,999.98
2017-05-11T12:13:35.383Z,999.98
2017-05-11T12:14:47.941Z,999.92
2017-05-11T12:16:00.522Z,999.9
2017-05-11T12:17:13.039Z,999.88
2017-05-11T12:18:25.333Z,999.92
2017-05-11T12:19:37.861Z,999.89
2017-05-11T12:20:50.124Z,999.9
2017-05-11T12:22:02.398Z,999.86
2017-05-11T12:23:14.647Z,999.84
2017-05-11T12:24:26.319Z,999.85
2017-05-11T12:25:38.888Z,999.8
2017-05-11T12:26:51.478Z,999.74
2017-05-11T12:28:04.056Z,999.75
2017-05-11T12:29:16.628Z,999.74
2017-05-11T12:30:29.221Z,999.75
2017-05-11T12:31:41.790Z,999.64
2017-05-11T12:32:54.107Z,999.71
2017-05-11T12:34:06.391Z,999.73
2017-05-11T12:35:18.953Z,999.73
2017-05-11T12:36:31.527Z,999.76
2017-05-11T12:37:44.070Z,999.71
2017-05-11T12:38:56.316Z,999.63
2017-05-11T12:40:08.313Z,999.63
2017-05-11T12:41:20.586Z,999.67
2017-05-11T12:42:33.161Z,999.67
2017-05-11T12:43:45.767Z,999.6
2017-05-11T12:44:58.050Z,999.62
2017-05-11T12:46:10.620Z,999.6
2017-05-11T12:47:23.163Z,999.58
2017-05-11T12:48:35.733Z,999.6
2017-05-11T12:49:48.279Z,999.63
2017-05-11T12:51:00.529Z,999.64
2017-05-11T12:52:12.824Z,999.62
2017-05-11T12:53:25.419Z,999.64
2017-05-11T12:54:37.991Z,999.56
2017-05-11T12:55:50.542Z,999.56
2017-05-11T12:57:02.504Z,999.52
2017-05-11T12:58:14.777Z,999.48
2017-05-11T12:59:27.071Z,999.47
2017-05-11T13:00:39.646Z,999.46
2017-05-11T13:01:52.242Z,999.42
2017-05-11T13:03:04.504Z,999.29
2017-05-11T13:04:16.773Z,999.36
2017-05-11T13:05:29.353Z,999.34
2017-05-11T13:06:41.628Z,999.38
2017-05-11T13:07:53.894Z,999.37
2017-05-11T13:09:06.463Z,999.34
2017-05-11T13:10:18.688Z,999.35
2017-05-11T13:11:30.955Z,999.33
2017-05-11T13:12:43.530Z,999.31
2017-05-11T13:13:56.098Z,999.31
2017-05-11T13:15:08.352Z,999.33
2017-05-11T13:16:20.016Z,999.34
2017-05-11T13:17:32.289Z,999.27
2017-05-11T13:18:44.837Z,999.22
2017-05-11T13:19:57.406Z,999.26
2017-05-11T13:21:09.965Z,999.23
2017-05-11T13:22:22.219Z,999.15
2017-05-11T13:23:34.790Z,999.29
2017-05-11T13:24:47.362Z,999.22
2017-05-11T13:25:59.632Z,999.18
2017-05-11T13:27:12.170Z,999.14
2017-05-11T13:28:24.693Z,999.16
2017-05-11T13:29:37.248Z,999.17
2017-05-11T13:30:49.816Z,999.13
2017-05-11T13:32:02.058Z,999.17
2017-05-11T13:33:14.627Z,999.18
2017-05-11T13:34:26.905Z,999.13
2017-05-11T13:35:39.455Z,999.13
2017-05-11T13:36:52.070Z,999.1
2017-05-11T13:38:04.643Z,999.09
2017-05-11T13:39:16.879Z,999.11
2017-05-11T13:40:29.115Z,999.08
2017-05-11T13:41:41.378Z,999.15
2017-05-11T13:42:53.652Z,999.13
2017-05-11T13:44:06.171Z,999.12
2017-05-11T13:45:18.719Z,999.14
2017-05-11T13:46:31.016Z,999.1
2017-05-11T13:47:43.559Z,999.07
2017-05-11T13:48:55.808Z,999.05
2017-05-11T13:50:08.378Z,999.05
2017-05-11T13:51:20.674Z,999.04
2017-05-11T13:52:33.210Z,999.03
2017-05-11T13:53:45.469Z,999.03
2017-05-11T13:54:58.038Z,999.01
2017-05-11T13:56:10.604Z,998.99
2017-05-11T13:57:22.880Z,998.97
2017-05-11T13:58:35.450Z,998.93
2017-05-11T13:59:47.998Z,998.93
2017-05-11T14:01:00.260Z,998.92
2017-05-11T14:02:12.861Z,998.92
2017-05-11T14:03:25.430Z,998.88
2017-05-11T14:04:38.004Z,998.87
2017-05-11T14:05:50.597Z,998.87
2017-05-11T14:07:03.145Z,998.8
2017-05-11T14:08:15.668Z,998.78
2017-05-11T14:09:28.238Z,998.81
2017-05-11T14:10:40.812Z,998.84
2017-05-11T14:11:53.381Z,998.8
2017-05-11T14:13:05.940Z,998.77
2017-05-11T14:14:18.196Z,998.77
2017-05-11T14:15:30.740Z,998.71
2017-05-11T14:16:43.280Z,998.72
2017-05-11T14:17:55.832Z,998.79
2017-05-11T14:19:08.368Z,998.74
2017-05-11T14:20:20.644Z,998.75
2017-05-11T14:21:32.898Z,998.73
2017-05-11T14:22:45.460Z,998.75
2017-05-11T14:23:58.032Z,998.73
2017-05-11T14:25:10.561Z,998.65
2017-05-11T14:26:22.530Z,998.66
2017-05-11T14:27:34.801Z,998.62
2017-05-11T14:28:47.345Z,998.62
2017-05-11T14:29:59.915Z,998.58
2017-05-11T14:31:12.461Z,998.54
2017-05-11T14:32:24.707Z,998.56
2017-05-11T14:33:36.958Z,998.58
2017-05-11T14:34:49.501Z,998.51
2017-05-11T14:36:01.450Z,998.49
2017-05-11T14:37:13.720Z,998.44
2017-05-11T14:38:26.218Z,998.46
2017-05-11T14:39:38.779Z,998.48
2017-05-11T14:40:51.358Z,998.41
2017-05-11T14:42:03.921Z,998.44
2017-05-11T14:43:16.196Z,998.44
2017-05-11T14:44:28.762Z,998.42